sensor_id;sensor_type;location;lat;lon;timestamp;temperature;humidity
909;DHT22;441;51.192;6.788;2023-04-24T00:01:03;20.90;69.90
909;DHT22;441;51.192;6.788;2023-04-24T00:03:33;20.90;69.80
909;DHT22;441;51.192;6.788;2023-04-24T00:06:00;20.90;69.80
909;DHT22;441;51.192;6.788;2023-04-24T00:08:29;20.90;69.80
909;DHT22;441;51.192;6.788;2023-04-24T00:10:56;20.90;69.80
909;DHT22;441;51.192;6.788;2023-04-24T00:13:23;20.90;70.50
909;DHT22;441;51.192;6.788;2023-04-24T00:15:50;20.90;69.80
909;DHT22;441;51.192;6.788;2023-04-24T00:18:17;20.90;69.60
909;DHT22;441;51.192;6.788;2023-04-24T00:20:44;20.90;69.60
909;DHT22;441;51.192;6.788;2023-04-24T00:23:12;20.90;69.90
909;DHT22;441;51.192;6.788;2023-04-24T00:25:40;20.80;70.00
909;DHT22;441;51.192;6.788;2023-04-24T00:28:07;20.90;70.10
909;DHT22;441;51.192;6.788;2023-04-24T00:30:34;20.80;70.10
909;DHT22;441;51.192;6.788;2023-04-24T00:33:01;20.80;70.00
909;DHT22;441;51.192;6.788;2023-04-24T00:35:28;20.90;70.10
909;DHT22;441;51.192;6.788;2023-04-24T00:37:55;20.80;69.90
909;DHT22;441;51.192;6.788;2023-04-24T00:40:22;20.80;70.00
909;DHT22;441;51.192;6.788;2023-04-24T00:42:50;20.80;69.90
909;DHT22;441;51.192;6.788;2023-04-24T00:45:17;20.80;70.00
909;DHT22;441;51.192;6.788;2023-04-24T00:47:45;20.80;70.00
909;DHT22;441;51.192;6.788;2023-04-24T00:50:15;20.80;70.10
909;DHT22;441;51.192;6.788;2023-04-24T00:52:42;20.80;70.20
909;DHT22;441;51.192;6.788;2023-04-24T00:55:09;20.80;70.20
909;DHT22;441;51.192;6.788;2023-04-24T00:57:36;20.70;70.10
909;DHT22;441;51.192;6.788;2023-04-24T01:00:06;20.80;70.00
909;DHT22;441;51.192;6.788;2023-04-24T01:02:37;20.70;69.90
909;DHT22;441;51.192;6.788;2023-04-24T01:05:06;20.70;69.80
909;DHT22;441;51.192;6.788;2023-04-24T01:07:34;20.70;69.80
909;DHT22;441;51.192;6.788;2023-04-24T01:10:02;20.70;69.50
909;DHT22;441;51.192;6.788;2023-04-24T01:12:29;20.70;69.50
909;DHT22;441;51.192;6.788;2023-04-24T01:14:56;20.70;69.50
909;DHT22;441;51.192;6.788;2023-04-24T01:17:24;20.70;69.30
909;DHT22;441;51.192;6.788;2023-04-24T01:19:51;20.70;69.10
909;DHT22;441;51.192;6.788;2023-04-24T01:22:20;20.70;69.00
909;DHT22;441;51.192;6.788;2023-04-24T01:24:47;20.70;68.80
909;DHT22;441;51.192;6.788;2023-04-24T01:27:15;20.70;68.60
909;DHT22;441;51.192;6.788;2023-04-24T01:29:42;20.70;68.40
909;DHT22;441;51.192;6.788;2023-04-24T01:32:09;20.70;68.30
909;DHT22;441;51.192;6.788;2023-04-24T01:34:36;20.60;68.20
909;DHT22;441;51.192;6.788;2023-04-24T01:37:03;20.60;68.20
909;DHT22;441;51.192;6.788;2023-04-24T01:39:32;20.60;68.30
909;DHT22;441;51.192;6.788;2023-04-24T01:41:59;20.70;68.30
909;DHT22;441;51.192;6.788;2023-04-24T01:44:27;20.60;68.10
909;DHT22;441;51.192;6.788;2023-04-24T01:46:54;20.60;68.10
909;DHT22;441;51.192;6.788;2023-04-24T01:49:22;20.60;68.10
909;DHT22;441;51.192;6.788;2023-04-24T01:51:49;20.60;68.10
909;DHT22;441;51.192;6.788;2023-04-24T01:54:15;20.60;68.10
909;DHT22;441;51.192;6.788;2023-04-24T01:56:44;20.60;68.10
909;DHT22;441;51.192;6.788;2023-04-24T01:59:12;20.60;68.20
909;DHT22;441;51.192;6.788;2023-04-24T02:01:39;20.60;68.10
909;DHT22;441;51.192;6.788;2023-04-24T02:04:07;20.60;68.00
909;DHT22;441;51.192;6.788;2023-04-24T02:06:34;20.50;67.80
909;DHT22;441;51.192;6.788;2023-04-24T02:09:01;20.50;67.70
909;DHT22;441;51.192;6.788;2023-04-24T02:11:29;20.50;67.70
909;DHT22;441;51.192;6.788;2023-04-24T02:13:57;20.50;67.80
909;DHT22;441;51.192;6.788;2023-04-24T02:16:25;20.50;67.70
909;DHT22;441;51.192;6.788;2023-04-24T02:18:52;20.50;67.60
909;DHT22;441;51.192;6.788;2023-04-24T02:21:19;20.50;67.70
909;DHT22;441;51.192;6.788;2023-04-24T02:23:46;20.50;67.70
909;DHT22;441;51.192;6.788;2023-04-24T02:26:13;20.50;67.70
909;DHT22;441;51.192;6.788;2023-04-24T02:28:40;20.50;67.70
909;DHT22;441;51.192;6.788;2023-04-24T02:31:09;20.50;67.80
909;DHT22;441;51.192;6.788;2023-04-24T02:33:35;20.40;67.60
909;DHT22;441;51.192;6.788;2023-04-24T02:36:03;20.40;67.60
909;DHT22;441;51.192;6.788;2023-04-24T02:38:29;20.40;67.50
909;DHT22;441;51.192;6.788;2023-04-24T02:40:56;20.40;67.50
909;DHT22;441;51.192;6.788;2023-04-24T02:43:23;20.40;67.40
909;DHT22;441;51.192;6.788;2023-04-24T02:45:50;20.50;67.50
909;DHT22;441;51.192;6.788;2023-04-24T02:48:18;20.40;67.30
909;DHT22;441;51.192;6.788;2023-04-24T02:50:46;20.40;67.30
909;DHT22;441;51.192;6.788;2023-04-24T02:53:13;20.40;67.20
909;DHT22;441;51.192;6.788;2023-04-24T02:55:40;20.40;67.20
909;DHT22;441;51.192;6.788;2023-04-24T02:58:07;20.40;67.20
909;DHT22;441;51.192;6.788;2023-04-24T03:00:33;20.40;67.20
909;DHT22;441;51.192;6.788;2023-04-24T03:03:00;20.40;67.20
909;DHT22;441;51.192;6.788;2023-04-24T03:05:29;20.40;67.30
909;DHT22;441;51.192;6.788;2023-04-24T03:07:57;20.40;67.40
909;DHT22;441;51.192;6.788;2023-04-24T03:10:24;20.30;67.30
909;DHT22;441;51.192;6.788;2023-04-24T03:12:51;20.30;67.20
909;DHT22;441;51.192;6.788;2023-04-24T03:15:18;20.40;67.30
909;DHT22;441;51.192;6.788;2023-04-24T03:17:45;20.30;67.10
909;DHT22;441;51.192;6.788;2023-04-24T03:20:12;20.30;67.10
909;DHT22;441;51.192;6.788;2023-04-24T03:22:40;20.30;67.20
909;DHT22;441;51.192;6.788;2023-04-24T03:25:08;20.30;67.10
909;DHT22;441;51.192;6.788;2023-04-24T03:27:35;20.30;67.10
909;DHT22;441;51.192;6.788;2023-04-24T03:30:03;20.30;67.10
909;DHT22;441;51.192;6.788;2023-04-24T03:32:30;20.30;67.00
909;DHT22;441;51.192;6.788;2023-04-24T03:34:57;20.30;66.90
909;DHT22;441;51.192;6.788;2023-04-24T03:37:24;20.30;66.90
909;DHT22;441;51.192;6.788;2023-04-24T03:39:53;20.30;66.80
909;DHT22;441;51.192;6.788;2023-04-24T03:42:20;20.30;66.80
909;DHT22;441;51.192;6.788;2023-04-24T03:44:47;20.30;66.70
909;DHT22;441;51.192;6.788;2023-04-24T03:47:13;20.20;66.60
909;DHT22;441;51.192;6.788;2023-04-24T03:49:40;20.20;66.60
909;DHT22;441;51.192;6.788;2023-04-24T03:52:07;20.20;66.70
909;DHT22;441;51.192;6.788;2023-04-24T03:54:34;20.30;66.70
909;DHT22;441;51.192;6.788;2023-04-24T03:57:02;20.20;66.60
909;DHT22;441;51.192;6.788;2023-04-24T03:59:30;20.20;66.60
909;DHT22;441;51.192;6.788;2023-04-24T04:01:57;20.20;66.50
909;DHT22;441;51.192;6.788;2023-04-24T04:04:24;20.20;66.40
909;DHT22;441;51.192;6.788;2023-04-24T04:06:50;20.30;66.40
909;DHT22;441;51.192;6.788;2023-04-24T04:09:18;20.20;66.30
909;DHT22;441;51.192;6.788;2023-04-24T04:11:45;20.20;66.30
909;DHT22;441;51.192;6.788;2023-04-24T04:14:14;20.20;66.30
909;DHT22;441;51.192;6.788;2023-04-24T04:16:40;20.20;66.20
909;DHT22;441;51.192;6.788;2023-04-24T04:19:07;20.20;66.10
909;DHT22;441;51.192;6.788;2023-04-24T04:21:34;20.20;66.20
909;DHT22;441;51.192;6.788;2023-04-24T04:24:01;20.20;66.10
909;DHT22;441;51.192;6.788;2023-04-24T04:26:28;20.20;66.10
909;DHT22;441;51.192;6.788;2023-04-24T04:28:57;20.20;66.00
909;DHT22;441;51.192;6.788;2023-04-24T04:31:25;20.20;65.90
909;DHT22;441;51.192;6.788;2023-04-24T04:33:52;20.20;65.90
909;DHT22;441;51.192;6.788;2023-04-24T04:36:19;20.20;65.90
909;DHT22;441;51.192;6.788;2023-04-24T04:38:46;20.20;65.90
909;DHT22;441;51.192;6.788;2023-04-24T04:41:14;20.20;65.90
909;DHT22;441;51.192;6.788;2023-04-24T04:43:42;20.20;65.90
909;DHT22;441;51.192;6.788;2023-04-24T04:46:09;20.20;65.90
909;DHT22;441;51.192;6.788;2023-04-24T04:48:38;20.20;66.00
909;DHT22;441;51.192;6.788;2023-04-24T04:51:05;20.20;66.00
909;DHT22;441;51.192;6.788;2023-04-24T04:53:32;20.20;65.90
909;DHT22;441;51.192;6.788;2023-04-24T04:55:59;20.20;66.00
909;DHT22;441;51.192;6.788;2023-04-24T04:58:26;20.20;66.00
909;DHT22;441;51.192;6.788;2023-04-24T05:00:53;20.20;66.00
909;DHT22;441;51.192;6.788;2023-04-24T05:03:19;20.20;66.10
909;DHT22;441;51.192;6.788;2023-04-24T05:05:48;20.20;66.70
909;DHT22;441;51.192;6.788;2023-04-24T05:08:15;20.20;68.30
909;DHT22;441;51.192;6.788;2023-04-24T05:10:41;20.20;69.60
909;DHT22;441;51.192;6.788;2023-04-24T05:13:08;20.20;69.30
909;DHT22;441;51.192;6.788;2023-04-24T05:15:35;20.20;69.00
909;DHT22;441;51.192;6.788;2023-04-24T05:18:02;20.20;68.70
909;DHT22;441;51.192;6.788;2023-04-24T05:20:29;20.20;68.30
909;DHT22;441;51.192;6.788;2023-04-24T05:22:57;20.20;68.10
909;DHT22;441;51.192;6.788;2023-04-24T05:25:24;20.20;68.00
909;DHT22;441;51.192;6.788;2023-04-24T05:27:51;20.20;67.80
909;DHT22;441;51.192;6.788;2023-04-24T05:30:18;20.20;67.60
909;DHT22;441;51.192;6.788;2023-04-24T05:32:45;20.10;67.40
909;DHT22;441;51.192;6.788;2023-04-24T05:35:12;20.10;67.20
909;DHT22;441;51.192;6.788;2023-04-24T05:37:39;20.20;67.20
909;DHT22;441;51.192;6.788;2023-04-24T05:40:09;20.10;66.90
909;DHT22;441;51.192;6.788;2023-04-24T05:42:36;20.20;66.80
909;DHT22;441;51.192;6.788;2023-04-24T05:45:04;20.10;66.60
909;DHT22;441;51.192;6.788;2023-04-24T05:47:31;20.10;66.60
909;DHT22;441;51.192;6.788;2023-04-24T05:49:58;20.20;66.50
909;DHT22;441;51.192;6.788;2023-04-24T05:52:25;20.10;66.30
909;DHT22;441;51.192;6.788;2023-04-24T05:54:52;20.10;66.40
909;DHT22;441;51.192;6.788;2023-04-24T05:57:20;20.10;66.10
909;DHT22;441;51.192;6.788;2023-04-24T05:59:47;20.10;66.10
909;DHT22;441;51.192;6.788;2023-04-24T06:02:14;20.10;65.90
909;DHT22;441;51.192;6.788;2023-04-24T06:04:41;20.10;65.90
909;DHT22;441;51.192;6.788;2023-04-24T06:07:08;20.10;65.80
909;DHT22;441;51.192;6.788;2023-04-24T06:09:35;20.10;65.80
909;DHT22;441;51.192;6.788;2023-04-24T06:12:02;20.10;65.60
909;DHT22;441;51.192;6.788;2023-04-24T06:14:30;20.10;65.50
909;DHT22;441;51.192;6.788;2023-04-24T06:16:57;20.10;65.50
909;DHT22;441;51.192;6.788;2023-04-24T06:19:24;20.10;65.40
909;DHT22;441;51.192;6.788;2023-04-24T06:21:51;20.10;65.40
909;DHT22;441;51.192;6.788;2023-04-24T06:24:18;20.00;65.20
909;DHT22;441;51.192;6.788;2023-04-24T06:26:44;20.10;65.20
909;DHT22;441;51.192;6.788;2023-04-24T06:29:11;20.10;65.10
909;DHT22;441;51.192;6.788;2023-04-24T06:31:40;20.00;64.90
909;DHT22;441;51.192;6.788;2023-04-24T06:34:06;20.00;64.90
909;DHT22;441;51.192;6.788;2023-04-24T06:36:34;20.10;64.90
909;DHT22;441;51.192;6.788;2023-04-24T06:39:01;20.00;64.70
909;DHT22;441;51.192;6.788;2023-04-24T06:41:28;20.00;64.70
909;DHT22;441;51.192;6.788;2023-04-24T06:43:55;20.10;64.70
909;DHT22;441;51.192;6.788;2023-04-24T06:46:22;20.10;64.70
909;DHT22;441;51.192;6.788;2023-04-24T06:48:53;20.10;64.70
909;DHT22;441;51.192;6.788;2023-04-24T06:51:22;20.00;64.50
909;DHT22;441;51.192;6.788;2023-04-24T06:53:49;20.00;64.50
909;DHT22;441;51.192;6.788;2023-04-24T06:56:15;20.00;64.40
909;DHT22;441;51.192;6.788;2023-04-24T06:58:42;20.00;64.30
909;DHT22;441;51.192;6.788;2023-04-24T07:01:10;20.00;64.30
909;DHT22;441;51.192;6.788;2023-04-24T07:03:37;20.00;64.30
909;DHT22;441;51.192;6.788;2023-04-24T07:06:06;20.00;64.20
909;DHT22;441;51.192;6.788;2023-04-24T07:08:33;20.00;64.10
909;DHT22;441;51.192;6.788;2023-04-24T07:11:01;20.00;64.10
909;DHT22;441;51.192;6.788;2023-04-24T07:13:28;20.00;64.10
909;DHT22;441;51.192;6.788;2023-04-24T07:15:55;20.00;64.00
909;DHT22;441;51.192;6.788;2023-04-24T07:18:22;20.00;63.90
909;DHT22;441;51.192;6.788;2023-04-24T07:20:49;20.00;63.90
909;DHT22;441;51.192;6.788;2023-04-24T07:23:18;20.00;63.90
909;DHT22;441;51.192;6.788;2023-04-24T07:25:45;20.00;63.90
909;DHT22;441;51.192;6.788;2023-04-24T07:28:12;20.00;63.80
909;DHT22;441;51.192;6.788;2023-04-24T07:30:39;20.00;63.80
909;DHT22;441;51.192;6.788;2023-04-24T07:33:06;20.00;63.80
909;DHT22;441;51.192;6.788;2023-04-24T07:35:33;20.00;63.70
909;DHT22;441;51.192;6.788;2023-04-24T07:38:01;19.90;63.50
909;DHT22;441;51.192;6.788;2023-04-24T07:40:29;20.00;63.60
909;DHT22;441;51.192;6.788;2023-04-24T07:42:56;20.00;63.50
909;DHT22;441;51.192;6.788;2023-04-24T07:45:23;20.00;63.40
909;DHT22;441;51.192;6.788;2023-04-24T07:47:51;19.90;63.30
909;DHT22;441;51.192;6.788;2023-04-24T07:50:18;19.90;63.20
909;DHT22;441;51.192;6.788;2023-04-24T07:52:45;20.00;63.30
909;DHT22;441;51.192;6.788;2023-04-24T07:55:13;19.90;63.20
909;DHT22;441;51.192;6.788;2023-04-24T07:57:41;19.90;63.20
909;DHT22;441;51.192;6.788;2023-04-24T08:00:09;19.90;63.10
909;DHT22;441;51.192;6.788;2023-04-24T08:02:36;19.90;63.10
909;DHT22;441;51.192;6.788;2023-04-24T08:05:03;19.90;63.00
909;DHT22;441;51.192;6.788;2023-04-24T08:07:30;19.90;63.00
909;DHT22;441;51.192;6.788;2023-04-24T08:09:57;19.90;63.00
909;DHT22;441;51.192;6.788;2023-04-24T08:12:24;19.90;62.90
909;DHT22;441;51.192;6.788;2023-04-24T08:14:53;19.90;62.90
909;DHT22;441;51.192;6.788;2023-04-24T08:17:20;19.80;62.70
909;DHT22;441;51.192;6.788;2023-04-24T08:19:47;19.90;62.80
909;DHT22;441;51.192;6.788;2023-04-24T08:22:14;19.90;62.80
909;DHT22;441;51.192;6.788;2023-04-24T08:24:41;19.90;62.80
909;DHT22;441;51.192;6.788;2023-04-24T08:27:08;19.80;62.60
909;DHT22;441;51.192;6.788;2023-04-24T08:29:35;19.80;62.60
909;DHT22;441;51.192;6.788;2023-04-24T08:32:04;19.90;62.60
909;DHT22;441;51.192;6.788;2023-04-24T08:34:31;19.90;62.60
909;DHT22;441;51.192;6.788;2023-04-24T08:36:58;19.80;62.50
909;DHT22;441;51.192;6.788;2023-04-24T08:39:25;19.90;63.30
909;DHT22;441;51.192;6.788;2023-04-24T08:41:52;19.90;62.50
909;DHT22;441;51.192;6.788;2023-04-24T08:44:20;19.90;62.50
909;DHT22;441;51.192;6.788;2023-04-24T08:46:47;19.80;62.40
909;DHT22;441;51.192;6.788;2023-04-24T08:49:18;19.80;62.40
909;DHT22;441;51.192;6.788;2023-04-24T08:51:45;19.80;62.40
909;DHT22;441;51.192;6.788;2023-04-24T08:54:13;19.80;62.30
909;DHT22;441;51.192;6.788;2023-04-24T08:56:42;19.80;62.30
909;DHT22;441;51.192;6.788;2023-04-24T08:59:10;19.80;62.20
909;DHT22;441;51.192;6.788;2023-04-24T09:01:38;19.80;62.30
909;DHT22;441;51.192;6.788;2023-04-24T09:04:07;19.80;62.20
909;DHT22;441;51.192;6.788;2023-04-24T09:06:36;19.80;62.20
909;DHT22;441;51.192;6.788;2023-04-24T09:09:03;19.80;62.20
909;DHT22;441;51.192;6.788;2023-04-24T09:11:31;19.80;62.20
909;DHT22;441;51.192;6.788;2023-04-24T09:13:58;19.80;62.20
909;DHT22;441;51.192;6.788;2023-04-24T09:16:26;19.80;62.20
909;DHT22;441;51.192;6.788;2023-04-24T09:18:55;19.80;62.20
909;DHT22;441;51.192;6.788;2023-04-24T09:21:22;19.80;62.20
909;DHT22;441;51.192;6.788;2023-04-24T09:23:59;19.80;62.90
909;DHT22;441;51.192;6.788;2023-04-24T09:26:28;19.80;62.10
909;DHT22;441;51.192;6.788;2023-04-24T09:28:56;19.70;61.90
909;DHT22;441;51.192;6.788;2023-04-24T09:31:24;19.80;62.10
909;DHT22;441;51.192;6.788;2023-04-24T09:33:57;19.70;61.90
909;DHT22;441;51.192;6.788;2023-04-24T09:36:28;19.70;62.00
909;DHT22;441;51.192;6.788;2023-04-24T09:38:59;19.70;61.90
909;DHT22;441;51.192;6.788;2023-04-24T09:41:26;19.70;61.90
909;DHT22;441;51.192;6.788;2023-04-24T09:43:55;19.70;61.90
909;DHT22;441;51.192;6.788;2023-04-24T09:46:30;19.70;61.90
909;DHT22;441;51.192;6.788;2023-04-24T09:48:57;19.70;61.80
909;DHT22;441;51.192;6.788;2023-04-24T09:51:35;19.70;61.80
909;DHT22;441;51.192;6.788;2023-04-24T09:54:13;19.70;61.80
909;DHT22;441;51.192;6.788;2023-04-24T09:56:42;19.70;61.80
909;DHT22;441;51.192;6.788;2023-04-24T09:59:10;19.70;61.80
909;DHT22;441;51.192;6.788;2023-04-24T10:01:37;19.70;61.80
909;DHT22;441;51.192;6.788;2023-04-24T10:04:15;19.70;61.80
909;DHT22;441;51.192;6.788;2023-04-24T10:06:42;19.70;61.80
909;DHT22;441;51.192;6.788;2023-04-24T10:09:11;19.70;61.80
909;DHT22;441;51.192;6.788;2023-04-24T10:11:41;19.70;61.80
909;DHT22;441;51.192;6.788;2023-04-24T10:14:09;19.70;61.80
909;DHT22;441;51.192;6.788;2023-04-24T10:16:38;19.70;61.80
909;DHT22;441;51.192;6.788;2023-04-24T10:19:06;19.70;61.80
909;DHT22;441;51.192;6.788;2023-04-24T10:21:34;19.70;61.80
909;DHT22;441;51.192;6.788;2023-04-24T10:24:01;19.70;61.70
909;DHT22;441;51.192;6.788;2023-04-24T10:26:32;19.70;61.70
909;DHT22;441;51.192;6.788;2023-04-24T10:28:59;19.70;61.70
909;DHT22;441;51.192;6.788;2023-04-24T10:31:26;19.70;61.60
909;DHT22;441;51.192;6.788;2023-04-24T10:33:54;19.70;61.60
909;DHT22;441;51.192;6.788;2023-04-24T10:36:22;19.70;61.60
909;DHT22;441;51.192;6.788;2023-04-24T10:38:52;19.70;61.60
909;DHT22;441;51.192;6.788;2023-04-24T10:41:21;19.70;61.60
909;DHT22;441;51.192;6.788;2023-04-24T10:44:04;19.70;61.60
909;DHT22;441;51.192;6.788;2023-04-24T10:46:31;19.70;62.30
909;DHT22;441;51.192;6.788;2023-04-24T10:48:58;19.70;61.60
909;DHT22;441;51.192;6.788;2023-04-24T10:51:45;19.70;61.50
909;DHT22;441;51.192;6.788;2023-04-24T10:54:26;19.70;61.50
909;DHT22;441;51.192;6.788;2023-04-24T10:56:53;19.60;61.50
909;DHT22;441;51.192;6.788;2023-04-24T10:59:35;19.70;61.50
909;DHT22;441;51.192;6.788;2023-04-24T11:02:03;19.70;61.50
909;DHT22;441;51.192;6.788;2023-04-24T11:04:31;19.60;61.40
909;DHT22;441;51.192;6.788;2023-04-24T11:06:58;19.70;61.50
909;DHT22;441;51.192;6.788;2023-04-24T11:09:27;19.60;61.40
909;DHT22;441;51.192;6.788;2023-04-24T11:12:03;19.70;61.50
909;DHT22;441;51.192;6.788;2023-04-24T11:14:59;19.60;61.30
909;DHT22;441;51.192;6.788;2023-04-24T11:17:29;19.60;61.30
909;DHT22;441;51.192;6.788;2023-04-24T11:20:01;19.60;61.30
909;DHT22;441;51.192;6.788;2023-04-24T11:22:31;19.70;61.70
909;DHT22;441;51.192;6.788;2023-04-24T11:25:00;19.70;61.50
909;DHT22;441;51.192;6.788;2023-04-24T11:27:30;19.60;61.30
909;DHT22;441;51.192;6.788;2023-04-24T11:30:03;19.60;61.30
909;DHT22;441;51.192;6.788;2023-04-24T11:32:34;19.60;62.00
909;DHT22;441;51.192;6.788;2023-04-24T11:35:02;19.60;61.20
909;DHT22;441;51.192;6.788;2023-04-24T11:37:34;19.60;61.30
909;DHT22;441;51.192;6.788;2023-04-24T11:40:01;19.60;61.30
909;DHT22;441;51.192;6.788;2023-04-24T11:42:33;19.60;61.20
909;DHT22;441;51.192;6.788;2023-04-24T11:45:07;19.60;61.20
909;DHT22;441;51.192;6.788;2023-04-24T11:47:34;19.70;61.30
909;DHT22;441;51.192;6.788;2023-04-24T11:50:03;19.70;61.20
909;DHT22;441;51.192;6.788;2023-04-24T11:52:30;19.60;61.20
909;DHT22;441;51.192;6.788;2023-04-24T11:54:57;19.60;61.10
909;DHT22;441;51.192;6.788;2023-04-24T11:57:25;19.70;61.20
909;DHT22;441;51.192;6.788;2023-04-24T11:59:54;19.60;61.10
909;DHT22;441;51.192;6.788;2023-04-24T12:02:23;19.60;61.00
909;DHT22;441;51.192;6.788;2023-04-24T12:04:51;19.60;61.00
909;DHT22;441;51.192;6.788;2023-04-24T12:07:18;19.60;61.10
909;DHT22;441;51.192;6.788;2023-04-24T12:09:45;19.60;61.10
909;DHT22;441;51.192;6.788;2023-04-24T12:12:14;19.60;61.10
909;DHT22;441;51.192;6.788;2023-04-24T12:14:48;19.60;61.00
909;DHT22;441;51.192;6.788;2023-04-24T12:17:15;19.60;61.00
909;DHT22;441;51.192;6.788;2023-04-24T12:19:47;19.60;61.80
909;DHT22;441;51.192;6.788;2023-04-24T12:22:16;19.60;60.90
909;DHT22;441;51.192;6.788;2023-04-24T12:24:59;19.60;60.90
909;DHT22;441;51.192;6.788;2023-04-24T12:27:29;19.70;61.10
909;DHT22;441;51.192;6.788;2023-04-24T12:29:57;19.60;60.90
909;DHT22;441;51.192;6.788;2023-04-24T12:32:25;19.60;60.90
909;DHT22;441;51.192;6.788;2023-04-24T12:34:54;19.60;60.90
909;DHT22;441;51.192;6.788;2023-04-24T12:37:23;19.60;60.80
909;DHT22;441;51.192;6.788;2023-04-24T12:40:03;19.60;60.80
909;DHT22;441;51.192;6.788;2023-04-24T12:42:30;19.60;60.80
909;DHT22;441;51.192;6.788;2023-04-24T12:44:58;19.60;60.80
909;DHT22;441;51.192;6.788;2023-04-24T12:47:26;19.60;60.80
909;DHT22;441;51.192;6.788;2023-04-24T12:49:54;19.60;60.70
909;DHT22;441;51.192;6.788;2023-04-24T12:52:22;19.60;60.70
909;DHT22;441;51.192;6.788;2023-04-24T12:54:49;19.70;60.70
909;DHT22;441;51.192;6.788;2023-04-24T12:57:16;19.60;60.60
909;DHT22;441;51.192;6.788;2023-04-24T12:59:43;19.60;60.60
909;DHT22;441;51.192;6.788;2023-04-24T13:02:10;19.70;60.70
909;DHT22;441;51.192;6.788;2023-04-24T13:04:37;19.70;60.60
909;DHT22;441;51.192;6.788;2023-04-24T13:07:06;19.60;60.50
909;DHT22;441;51.192;6.788;2023-04-24T13:09:34;19.60;60.40
909;DHT22;441;51.192;6.788;2023-04-24T13:12:01;19.70;60.50
909;DHT22;441;51.192;6.788;2023-04-24T13:14:28;19.60;60.30
909;DHT22;441;51.192;6.788;2023-04-24T13:16:55;19.60;60.30
909;DHT22;441;51.192;6.788;2023-04-24T13:19:23;19.60;60.30
909;DHT22;441;51.192;6.788;2023-04-24T13:21:50;19.60;60.30
909;DHT22;441;51.192;6.788;2023-04-24T13:24:19;19.60;60.20
909;DHT22;441;51.192;6.788;2023-04-24T13:26:45;19.60;60.30
909;DHT22;441;51.192;6.788;2023-04-24T13:29:12;19.60;60.30
909;DHT22;441;51.192;6.788;2023-04-24T13:31:39;19.60;60.30
909;DHT22;441;51.192;6.788;2023-04-24T13:34:06;19.60;60.30
909;DHT22;441;51.192;6.788;2023-04-24T13:36:33;19.60;60.30
909;DHT22;441;51.192;6.788;2023-04-24T13:39:00;19.60;60.20
909;DHT22;441;51.192;6.788;2023-04-24T13:41:30;19.60;60.20
909;DHT22;441;51.192;6.788;2023-04-24T13:43:57;19.60;60.70
909;DHT22;441;51.192;6.788;2023-04-24T13:46:24;19.70;61.50
909;DHT22;441;51.192;6.788;2023-04-24T13:48:51;19.70;61.50
909;DHT22;441;51.192;6.788;2023-04-24T13:51:18;19.80;61.50
909;DHT22;441;51.192;6.788;2023-04-24T13:53:45;19.90;61.40
909;DHT22;441;51.192;6.788;2023-04-24T13:56:12;20.00;61.40
909;DHT22;441;51.192;6.788;2023-04-24T13:58:41;20.00;61.30
909;DHT22;441;51.192;6.788;2023-04-24T14:01:07;20.10;61.30
909;DHT22;441;51.192;6.788;2023-04-24T14:03:35;20.20;60.80
909;DHT22;441;51.192;6.788;2023-04-24T14:06:03;20.30;60.70
909;DHT22;441;51.192;6.788;2023-04-24T14:08:31;20.30;60.60
909;DHT22;441;51.192;6.788;2023-04-24T14:10:59;20.40;60.20
909;DHT22;441;51.192;6.788;2023-04-24T14:13:26;20.40;60.50
909;DHT22;441;51.192;6.788;2023-04-24T14:15:54;20.40;59.50
909;DHT22;441;51.192;6.788;2023-04-24T14:18:21;20.50;59.40
909;DHT22;441;51.192;6.788;2023-04-24T14:20:48;20.50;59.90
909;DHT22;441;51.192;6.788;2023-04-24T14:23:15;20.40;59.80
909;DHT22;441;51.192;6.788;2023-04-24T14:25:42;20.50;60.00
909;DHT22;441;51.192;6.788;2023-04-24T14:28:09;20.50;60.10
909;DHT22;441;51.192;6.788;2023-04-24T14:30:36;20.50;60.20
909;DHT22;441;51.192;6.788;2023-04-24T14:33:07;20.50;60.20
909;DHT22;441;51.192;6.788;2023-04-24T14:35:34;20.60;60.60
909;DHT22;441;51.192;6.788;2023-04-24T14:38:01;20.60;60.50
909;DHT22;441;51.192;6.788;2023-04-24T14:40:28;20.60;60.30
909;DHT22;441;51.192;6.788;2023-04-24T14:42:55;20.60;60.20
909;DHT22;441;51.192;6.788;2023-04-24T14:45:23;20.60;60.20
909;DHT22;441;51.192;6.788;2023-04-24T14:47:50;20.70;60.30
909;DHT22;441;51.192;6.788;2023-04-24T14:50:18;20.70;60.20
909;DHT22;441;51.192;6.788;2023-04-24T14:52:45;20.70;60.10
909;DHT22;441;51.192;6.788;2023-04-24T14:55:13;20.80;60.20
909;DHT22;441;51.192;6.788;2023-04-24T14:57:41;20.80;60.40
909;DHT22;441;51.192;6.788;2023-04-24T15:00:08;20.80;60.40
909;DHT22;441;51.192;6.788;2023-04-24T15:02:35;20.90;60.80
909;DHT22;441;51.192;6.788;2023-04-24T15:05:06;20.80;60.50
909;DHT22;441;51.192;6.788;2023-04-24T15:07:35;20.90;60.40
909;DHT22;441;51.192;6.788;2023-04-24T15:10:02;20.90;60.50
909;DHT22;441;51.192;6.788;2023-04-24T15:12:29;20.90;60.70
909;DHT22;441;51.192;6.788;2023-04-24T15:14:57;21.00;60.60
909;DHT22;441;51.192;6.788;2023-04-24T15:17:24;21.00;60.50
909;DHT22;441;51.192;6.788;2023-04-24T15:19:52;21.00;60.30
909;DHT22;441;51.192;6.788;2023-04-24T15:22:18;21.10;60.20
909;DHT22;441;51.192;6.788;2023-04-24T15:24:47;21.10;60.00
909;DHT22;441;51.192;6.788;2023-04-24T15:27:14;21.10;60.00
909;DHT22;441;51.192;6.788;2023-04-24T15:29:41;21.10;59.90
909;DHT22;441;51.192;6.788;2023-04-24T15:32:08;21.00;59.90
909;DHT22;441;51.192;6.788;2023-04-24T15:34:35;21.00;60.00
909;DHT22;441;51.192;6.788;2023-04-24T15:37:02;21.00;59.90
909;DHT22;441;51.192;6.788;2023-04-24T15:39:29;21.00;59.90
909;DHT22;441;51.192;6.788;2023-04-24T15:41:57;21.00;59.90
909;DHT22;441;51.192;6.788;2023-04-24T15:44:24;21.10;60.10
909;DHT22;441;51.192;6.788;2023-04-24T15:46:51;21.10;59.90
909;DHT22;441;51.192;6.788;2023-04-24T15:49:18;21.10;59.80
909;DHT22;441;51.192;6.788;2023-04-24T15:51:45;21.10;59.70
909;DHT22;441;51.192;6.788;2023-04-24T15:54:12;21.10;59.60
909;DHT22;441;51.192;6.788;2023-04-24T15:56:39;21.10;59.60
909;DHT22;441;51.192;6.788;2023-04-24T15:59:07;21.20;59.50
909;DHT22;441;51.192;6.788;2023-04-24T16:01:34;21.10;59.40
909;DHT22;441;51.192;6.788;2023-04-24T16:04:01;21.30;59.40
909;DHT22;441;51.192;6.788;2023-04-24T16:06:27;21.30;59.20
909;DHT22;441;51.192;6.788;2023-04-24T16:08:54;21.20;59.10
909;DHT22;441;51.192;6.788;2023-04-24T16:11:21;21.20;59.10
909;DHT22;441;51.192;6.788;2023-04-24T16:13:48;21.20;59.20
909;DHT22;441;51.192;6.788;2023-04-24T16:16:16;21.20;59.20
909;DHT22;441;51.192;6.788;2023-04-24T16:18:43;21.20;59.10
909;DHT22;441;51.192;6.788;2023-04-24T16:21:10;21.20;59.10
909;DHT22;441;51.192;6.788;2023-04-24T16:23:37;21.20;59.10
909;DHT22;441;51.192;6.788;2023-04-24T16:26:04;21.30;59.10
909;DHT22;441;51.192;6.788;2023-04-24T16:28:31;21.30;59.00
909;DHT22;441;51.192;6.788;2023-04-24T16:30:58;21.30;58.90
909;DHT22;441;51.192;6.788;2023-04-24T16:33:26;21.30;58.80
909;DHT22;441;51.192;6.788;2023-04-24T16:35:53;21.30;58.60
909;DHT22;441;51.192;6.788;2023-04-24T16:38:21;21.30;58.70